createdAt,value
2019-05-20T00:00:59.462Z,1.13
2019-05-20T00:03:29.862Z,0.80
2019-05-20T00:06:00.282Z,0.90
2019-05-20T00:08:30.710Z,1.00
2019-05-20T00:11:01.234Z,1.33
2019-05-20T00:13:31.790Z,0.80
2019-05-20T00:16:02.147Z,0.70
2019-05-20T00:18:32.598Z,1.27
2019-05-20T00:21:02.966Z,0.80
2019-05-20T00:23:33.345Z,0.70
2019-05-20T00:26:03.750Z,2.50
2019-05-20T00:28:34.151Z,1.10
2019-05-20T00:31:04.518Z,1.20
2019-05-20T00:33:34.925Z,0.83
2019-05-20T00:36:05.349Z,1.30
2019-05-20T00:38:35.742Z,1.47
2019-05-20T00:41:06.125Z,2.27
2019-05-20T00:43:36.510Z,3.83
2019-05-20T00:46:06.929Z,0.90
2019-05-20T00:48:37.337Z,1.00
2019-05-20T00:51:07.687Z,0.70
2019-05-20T00:53:38.083Z,0.80
2019-05-20T00:56:08.442Z,0.80
2019-05-20T00:58:38.892Z,1.03
2019-05-20T01:01:09.477Z,0.60
2019-05-20T01:03:39.857Z,0.70
2019-05-20T01:06:10.241Z,0.70
2019-05-20T01:08:40.636Z,0.63
2019-05-20T01:11:10.986Z,1.37
2019-05-20T01:13:41.373Z,0.70
2019-05-20T01:16:11.739Z,1.00
2019-05-20T01:18:42.113Z,1.40
2019-05-20T01:21:12.486Z,0.83
2019-05-20T01:23:42.938Z,0.80
2019-05-20T01:26:13.283Z,0.70
2019-05-20T01:28:43.679Z,0.73
2019-05-20T01:31:14.043Z,1.13
2019-05-20T01:33:44.494Z,0.80
2019-05-20T01:36:14.876Z,0.70
2019-05-20T01:38:45.322Z,0.90
2019-05-20T01:41:15.673Z,0.80
2019-05-20T01:43:46.125Z,5.57
2019-05-20T01:46:16.561Z,1.20
2019-05-20T01:48:46.966Z,1.63
2019-05-20T01:51:17.330Z,1.17
2019-05-20T01:53:47.745Z,0.83
2019-05-20T01:56:18.118Z,0.90
2019-05-20T01:58:48.508Z,0.87
2019-05-20T02:01:18.928Z,1.20
2019-05-20T02:03:49.426Z,0.90
2019-05-20T02:06:19.825Z,1.10
2019-05-20T02:08:50.231Z,1.00
2019-05-20T02:11:20.589Z,1.00
2019-05-20T02:13:57.918Z,1.33
2019-05-20T02:16:28.527Z,1.00
2019-05-20T02:18:58.914Z,0.80
2019-05-20T02:21:29.366Z,0.90
2019-05-20T02:23:59.791Z,1.23
2019-05-20T02:26:30.235Z,0.90
2019-05-20T02:29:00.644Z,0.80
2019-05-20T02:31:31.072Z,0.90
2019-05-20T02:34:01.453Z,1.00
2019-05-20T02:36:31.829Z,1.20
2019-05-20T02:39:02.216Z,1.10
2019-05-20T02:41:32.590Z,1.13
2019-05-20T02:44:03.129Z,1.10
2019-05-20T02:46:33.532Z,1.40
2019-05-20T02:49:03.963Z,1.63
2019-05-20T02:51:34.371Z,1.10
2019-05-20T02:54:04.755Z,1.23
2019-05-20T02:56:35.116Z,1.20
2019-05-20T02:59:05.678Z,1.30
2019-05-20T03:01:36.048Z,1.30
2019-05-20T03:04:12.025Z,1.77
2019-05-20T03:06:38.505Z,1.00
2019-05-20T03:09:12.174Z,1.33
2019-05-20T03:11:40.978Z,1.17
2019-05-20T03:14:11.369Z,1.40
2019-05-20T03:16:41.749Z,1.43
2019-05-20T03:19:12.140Z,1.40
2019-05-20T03:21:42.509Z,1.60
2019-05-20T03:24:12.871Z,5.93
2019-05-20T03:26:43.268Z,1.90
2019-05-20T03:29:13.726Z,2.47
2019-05-20T03:31:44.134Z,1.70
2019-05-20T03:34:41.643Z,2.77
2019-05-20T03:36:46.682Z,1.83
2019-05-20T03:39:17.042Z,1.60
2019-05-20T03:41:47.440Z,1.80
2019-05-20T03:44:17.793Z,1.80
2019-05-20T03:46:48.186Z,4.80
2019-05-20T03:49:18.540Z,2.53
2019-05-20T03:51:52.361Z,2.93
2019-05-20T03:54:20.998Z,2.40
2019-05-20T03:56:51.415Z,2.10
2019-05-20T03:59:21.811Z,2.47
2019-05-20T04:01:52.219Z,1.90
2019-05-20T04:04:25.026Z,2.70
2019-05-20T04:06:54.687Z,3.10
2019-05-20T04:09:25.166Z,2.17
2019-05-20T04:11:55.627Z,2.20
2019-05-20T04:14:26.078Z,2.10
2019-05-20T04:16:56.477Z,2.00
2019-05-20T04:19:26.850Z,2.13
2019-05-20T04:21:57.255Z,2.50
2019-05-20T04:24:27.609Z,2.80
2019-05-20T04:27:00.872Z,2.10
2019-05-20T04:29:31.232Z,2.43
2019-05-20T04:32:01.674Z,2.60
2019-05-20T04:34:32.701Z,3.10
2019-05-20T04:37:03.086Z,2.53
2019-05-20T04:39:33.521Z,2.43
2019-05-20T04:42:06.525Z,3.50
2019-05-20T04:44:36.025Z,2.87
2019-05-20T04:47:06.420Z,3.23
2019-05-20T04:49:36.784Z,4.00
2019-05-20T04:52:07.278Z,3.43
2019-05-20T04:54:37.648Z,3.10
2019-05-20T04:57:08.032Z,4.17
2019-05-20T04:59:38.395Z,3.77
2019-05-20T05:02:08.783Z,3.57
2019-05-20T05:04:39.160Z,5.30
2019-05-20T05:07:09.544Z,4.63
2019-05-20T05:09:39.937Z,4.20
2019-05-20T05:12:10.339Z,4.23
2019-05-20T05:14:40.739Z,3.77
2019-05-20T05:17:11.216Z,4.20
2019-05-20T05:19:41.591Z,4.00
2019-05-20T05:22:12.003Z,3.80
2019-05-20T05:24:42.364Z,4.90
2019-05-20T05:27:12.804Z,4.80
2019-05-20T05:29:43.185Z,4.33
2019-05-20T05:32:13.595Z,4.50
2019-05-20T05:34:43.952Z,4.60
2019-05-20T05:37:14.334Z,4.73
2019-05-20T05:39:44.714Z,5.30
2019-05-20T05:42:15.157Z,4.73
2019-05-20T05:44:45.542Z,4.97
2019-05-20T05:47:15.947Z,5.73
2019-05-20T05:49:48.022Z,6.10
2019-05-20T05:52:18.446Z,5.73
2019-05-20T05:54:48.888Z,5.70
2019-05-20T05:57:20.775Z,6.20
2019-05-20T05:59:51.143Z,6.50
2019-05-20T06:02:21.546Z,6.00
2019-05-20T06:04:51.998Z,5.93
2019-05-20T06:07:22.381Z,6.77
2019-05-20T06:09:52.757Z,6.97
2019-05-20T06:12:23.177Z,9.03
2019-05-20T06:14:53.798Z,8.93
2019-05-20T06:17:24.409Z,10.13
2019-05-20T06:19:54.830Z,11.90
2019-05-20T06:22:25.487Z,11.10
2019-05-20T06:24:55.898Z,10.07
2019-05-20T06:27:26.280Z,14.60
2019-05-20T06:29:56.771Z,14.97
2019-05-20T06:32:27.410Z,12.53
2019-05-20T06:34:57.927Z,11.73
2019-05-20T06:37:30.889Z,11.30
2019-05-20T06:40:01.885Z,14.00
2019-05-20T06:42:32.261Z,14.30
2019-05-20T06:45:02.691Z,13.40
2019-05-20T06:47:33.065Z,11.43
2019-05-20T06:50:03.882Z,14.63
2019-05-20T06:52:36.207Z,10.57
2019-05-20T06:55:08.189Z,11.27
2019-05-20T06:57:38.639Z,11.73
2019-05-20T07:00:09.722Z,11.60
2019-05-20T07:02:40.115Z,9.97
2019-05-20T07:05:11.058Z,11.10
2019-05-20T07:07:41.438Z,11.93
2019-05-20T07:10:11.847Z,10.20
2019-05-20T07:12:42.242Z,10.20
2019-05-20T07:15:12.762Z,12.37
2019-05-20T07:17:43.153Z,12.13
2019-05-20T07:20:13.975Z,10.27
2019-05-20T07:22:55.285Z,12.50
2019-05-20T07:25:16.470Z,10.97
2019-05-20T07:27:46.889Z,11.20
2019-05-20T07:30:17.918Z,10.53
2019-05-20T07:32:48.291Z,11.37
2019-05-20T07:35:29.588Z,11.80
2019-05-20T07:37:50.763Z,11.33
2019-05-20T07:40:31.390Z,10.10
2019-05-20T07:43:02.260Z,10.40
2019-05-20T07:45:35.431Z,10.67
2019-05-20T07:48:06.646Z,13.10
2019-05-20T07:50:39.910Z,13.77
2019-05-20T07:53:11.784Z,12.10
2019-05-20T07:55:51.403Z,11.30
2019-05-20T07:58:24.729Z,13.50
2019-05-20T08:00:55.128Z,12.63
2019-05-20T08:03:25.501Z,12.83
2019-05-20T08:05:55.926Z,11.00
2019-05-20T08:08:26.298Z,12.73
2019-05-20T08:10:56.698Z,11.83
2019-05-20T08:13:27.061Z,13.00
2019-05-20T08:15:57.494Z,12.60
2019-05-20T08:18:27.842Z,15.67
2019-05-20T08:20:58.334Z,12.77
2019-05-20T08:23:28.779Z,12.20
2019-05-20T08:25:59.248Z,13.47
2019-05-20T08:28:29.632Z,12.63
2019-05-20T08:31:00.049Z,13.20
2019-05-20T08:33:30.482Z,14.60
2019-05-20T08:36:00.935Z,12.90
2019-05-20T08:38:31.371Z,14.57
2019-05-20T08:41:01.771Z,12.93
2019-05-20T08:43:32.157Z,15.37
2019-05-20T08:46:02.578Z,15.17
2019-05-20T08:48:33.015Z,14.47
2019-05-20T08:51:03.482Z,16.83
2019-05-20T08:53:33.866Z,14.73
2019-05-20T08:56:04.473Z,15.50
2019-05-20T08:58:34.939Z,14.87
2019-05-20T09:01:05.871Z,15.23
2019-05-20T09:03:36.669Z,16.73
2019-05-20T09:06:07.073Z,15.33
2019-05-20T09:08:37.455Z,18.07
2019-05-20T09:11:07.848Z,17.33
2019-05-20T09:13:38.239Z,17.20
2019-05-20T09:16:08.731Z,15.93
2019-05-20T09:18:39.157Z,16.00
2019-05-20T09:21:09.666Z,16.50
2019-05-20T09:23:40.355Z,15.13
2019-05-20T09:26:10.889Z,15.80
2019-05-20T09:28:41.304Z,15.37
2019-05-20T09:31:11.879Z,15.33
2019-05-20T09:33:42.593Z,16.30
2019-05-20T09:36:13.021Z,17.17
2019-05-20T09:38:43.421Z,18.07
2019-05-20T09:41:13.829Z,16.10
2019-05-20T09:43:44.226Z,18.17
2019-05-20T09:46:14.705Z,17.53
2019-05-20T09:48:45.137Z,16.07
2019-05-20T09:51:15.559Z,18.97
2019-05-20T09:53:46.110Z,17.13
2019-05-20T09:56:16.542Z,17.10
2019-05-20T09:58:46.911Z,17.40
2019-05-20T10:01:17.312Z,16.10
2019-05-20T10:03:47.755Z,17.53
2019-05-20T10:06:18.176Z,16.00
2019-05-20T10:08:48.557Z,17.13
2019-05-20T10:11:19.114Z,17.30
2019-05-20T10:13:49.710Z,21.83
2019-05-20T10:16:20.130Z,17.50
2019-05-20T10:18:50.526Z,20.27
2019-05-20T10:21:20.899Z,18.40
2019-05-20T10:23:51.292Z,19.73
2019-05-20T10:26:21.753Z,17.20
2019-05-20T10:28:52.160Z,17.67
2019-05-20T10:31:22.671Z,17.90
2019-05-20T10:33:53.130Z,20.40
2019-05-20T10:36:23.542Z,18.10
2019-05-20T10:38:59.089Z,18.80
2019-05-20T10:41:29.377Z,20.53
2019-05-20T10:43:58.143Z,18.57
2019-05-20T10:46:28.641Z,20.10
2019-05-20T10:48:59.114Z,20.40
2019-05-20T10:51:29.502Z,19.00
2019-05-20T10:53:59.935Z,21.47
2019-05-20T10:56:30.371Z,21.13
2019-05-20T10:59:00.826Z,20.60
2019-05-20T11:01:31.202Z,20.17
2019-05-20T11:04:01.613Z,21.87
2019-05-20T11:06:31.990Z,20.53
2019-05-20T11:09:13.791Z,24.00
2019-05-20T11:11:34.776Z,25.03
2019-05-20T11:14:05.183Z,23.57
2019-05-20T11:16:35.597Z,21.03
2019-05-20T11:19:06.017Z,23.73
2019-05-20T11:21:46.787Z,23.87
2019-05-20T11:24:17.223Z,24.80
2019-05-20T11:26:47.586Z,22.13
2019-05-20T11:29:18.019Z,24.10
2019-05-20T11:31:48.474Z,25.73
2019-05-20T11:34:18.878Z,24.70
2019-05-20T11:36:49.253Z,23.73
2019-05-20T11:39:32.589Z,25.93
2019-05-20T11:41:53.982Z,23.20
2019-05-20T11:44:23.829Z,25.70
2019-05-20T11:46:54.216Z,24.07
2019-05-20T11:49:28.814Z,22.70
2019-05-20T11:51:56.735Z,21.60
2019-05-20T11:54:27.182Z,23.27
2019-05-20T11:56:57.649Z,24.27
2019-05-20T11:59:28.067Z,25.07
2019-05-20T12:01:58.458Z,23.67
2019-05-20T12:04:28.896Z,23.60
2019-05-20T12:06:59.278Z,27.57
2019-05-20T12:09:29.675Z,25.37
2019-05-20T12:12:00.078Z,27.27
2019-05-20T12:14:30.509Z,24.77
2019-05-20T12:17:00.892Z,26.10
2019-05-20T12:19:31.364Z,25.23
2019-05-20T12:22:01.797Z,29.70
2019-05-20T12:24:32.263Z,26.83
2019-05-20T12:27:02.633Z,28.07
2019-05-20T12:29:33.062Z,24.23
2019-05-20T12:32:03.812Z,23.90
2019-05-20T12:34:34.475Z,25.77
2019-05-20T12:37:04.974Z,26.60
2019-05-20T12:39:35.427Z,28.63
2019-05-20T12:42:05.894Z,26.37
2019-05-20T12:44:36.336Z,24.10
2019-05-20T12:47:06.790Z,26.03
2019-05-20T12:49:37.337Z,25.90
2019-05-20T12:52:07.821Z,25.93
2019-05-20T12:54:38.260Z,27.13
2019-05-20T12:57:08.753Z,27.57
2019-05-20T12:59:39.126Z,26.63
2019-05-20T13:02:09.541Z,29.07
2019-05-20T13:04:39.924Z,29.87
2019-05-20T13:07:10.353Z,30.20
2019-05-20T13:09:40.748Z,31.20
2019-05-20T13:12:11.222Z,28.00
2019-05-20T13:14:41.802Z,31.33
2019-05-20T13:17:12.275Z,30.30
2019-05-20T13:19:42.820Z,33.60
2019-05-20T13:22:13.270Z,27.10
2019-05-20T13:24:43.725Z,32.10
2019-05-20T13:27:14.138Z,34.17
2019-05-20T13:29:44.614Z,26.90
2019-05-20T13:32:15.048Z,27.77
2019-05-20T13:34:45.440Z,29.43
2019-05-20T13:37:15.904Z,25.53
2019-05-20T13:39:46.317Z,31.20
2019-05-20T13:42:16.763Z,29.97
2019-05-20T13:44:47.136Z,31.30
2019-05-20T13:47:17.533Z,29.40
2019-05-20T13:49:49.265Z,34.33
2019-05-20T13:52:19.729Z,31.87
2019-05-20T13:54:50.206Z,33.67
2019-05-20T13:57:20.618Z,32.93
2019-05-20T13:59:51.027Z,29.67
2019-05-20T14:02:24.334Z,31.97
2019-05-20T14:04:54.737Z,29.30
2019-05-20T14:07:25.214Z,29.60
2019-05-20T14:09:55.616Z,29.60
2019-05-20T14:12:26.262Z,33.50
2019-05-20T14:14:56.830Z,29.17
2019-05-20T14:17:27.351Z,31.27
2019-05-20T14:19:57.847Z,28.77
2019-05-20T14:22:28.289Z,31.63
2019-05-20T14:24:58.829Z,35.90
2019-05-20T14:27:29.294Z,32.33
2019-05-20T14:29:59.714Z,32.07
2019-05-20T14:32:30.138Z,33.67
2019-05-20T14:35:00.581Z,31.20
2019-05-20T14:37:31.016Z,35.77
2019-05-20T14:40:01.469Z,31.67
2019-05-20T14:42:31.890Z,32.67
2019-05-20T14:45:02.283Z,36.40
2019-05-20T14:47:32.820Z,33.73
2019-05-20T14:50:03.243Z,34.60
2019-05-20T14:52:33.670Z,31.80
2019-05-20T14:55:04.267Z,34.33
2019-05-20T14:57:34.693Z,37.43
2019-05-20T15:00:06.019Z,33.53
2019-05-20T15:02:36.470Z,35.07
2019-05-20T15:05:07.330Z,31.77
2019-05-20T15:07:37.805Z,35.67
2019-05-20T15:10:08.715Z,29.80
2019-05-20T15:12:39.202Z,28.50
2019-05-20T15:15:10.023Z,27.60
2019-05-20T15:17:40.494Z,28.57
2019-05-20T15:20:10.869Z,22.00
2019-05-20T15:22:41.311Z,19.20
2019-05-20T15:25:11.924Z,19.60
2019-05-20T15:27:42.483Z,22.80
2019-05-20T15:30:13.313Z,22.40
2019-05-20T15:32:43.706Z,22.33
2019-05-20T15:35:14.221Z,22.83
2019-05-20T15:37:44.670Z,20.77
2019-05-20T15:40:16.415Z,21.43
2019-05-20T15:42:46.926Z,23.83
2019-05-20T15:45:17.456Z,23.43
2019-05-20T15:47:47.882Z,24.37
2019-05-20T15:50:18.416Z,24.97
2019-05-20T15:52:49.181Z,23.80
2019-05-20T15:55:19.622Z,26.40
2019-05-20T15:57:50.123Z,25.03
2019-05-20T16:00:20.575Z,28.77
2019-05-20T16:02:50.986Z,25.63
2019-05-20T16:05:21.503Z,26.40
2019-05-20T16:07:51.988Z,31.70
2019-05-20T16:10:22.525Z,25.57
2019-05-20T16:12:52.925Z,27.67
2019-05-20T16:15:23.396Z,24.53
2019-05-20T16:17:53.883Z,28.03
2019-05-20T16:20:24.329Z,33.03
2019-05-20T16:22:54.801Z,31.63
2019-05-20T16:25:25.453Z,31.77
2019-05-20T16:27:55.885Z,34.97
2019-05-20T16:30:26.389Z,29.53
2019-05-20T16:32:56.814Z,32.13
2019-05-20T16:35:27.454Z,31.20
2019-05-20T16:37:57.877Z,35.17
2019-05-20T16:40:28.266Z,33.20
2019-05-20T16:42:58.788Z,35.60
2019-05-20T16:45:29.437Z,34.20
2019-05-20T16:47:59.887Z,35.60
2019-05-20T16:50:30.281Z,33.40
2019-05-20T16:53:00.693Z,34.70
2019-05-20T16:55:31.166Z,33.05
2019-05-20T16:58:01.573Z,32.80
2019-05-20T17:00:32.458Z,33.60
2019-05-20T17:03:02.997Z,31.07
2019-05-20T17:05:34.197Z,33.13
2019-05-20T17:08:04.620Z,38.40
2019-05-20T17:10:35.493Z,33.40
2019-05-20T17:13:05.887Z,36.07
2019-05-20T17:15:36.365Z,34.23
2019-05-20T17:18:06.802Z,33.27
2019-05-20T17:20:37.242Z,36.70
2019-05-20T17:23:07.694Z,30.30
2019-05-20T17:25:38.188Z,33.20
2019-05-20T17:28:08.551Z,32.03
2019-05-20T17:30:45.382Z,39.27
2019-05-20T17:33:11.341Z,32.77
2019-05-20T17:35:41.764Z,27.00
2019-05-20T17:38:12.201Z,27.20
2019-05-20T17:40:42.698Z,26.90
2019-05-20T17:43:13.157Z,24.67
2019-05-20T17:45:43.678Z,25.67
2019-05-20T17:48:14.105Z,27.83
2019-05-20T17:50:44.547Z,25.37
2019-05-20T17:53:14.951Z,32.53
2019-05-20T17:55:45.376Z,35.07
2019-05-20T17:58:15.834Z,34.30
2019-05-20T18:00:46.320Z,35.77
2019-05-20T18:03:16.767Z,34.03
2019-05-20T18:05:47.251Z,35.60
2019-05-20T18:08:17.708Z,37.43
2019-05-20T18:10:48.348Z,35.83
2019-05-20T18:13:18.762Z,40.30
2019-05-20T18:15:49.208Z,34.53
2019-05-20T18:18:19.591Z,36.30
2019-05-20T18:20:50.102Z,38.10
2019-05-20T18:23:20.539Z,34.57
2019-05-20T18:25:50.957Z,40.70
2019-05-20T18:28:21.419Z,34.87
2019-05-20T18:30:51.878Z,37.37
2019-05-20T18:33:22.341Z,36.17
2019-05-20T18:35:52.802Z,38.23
2019-05-20T18:38:23.280Z,39.23
2019-05-20T18:40:53.748Z,32.83
2019-05-20T18:43:24.171Z,37.03
2019-05-20T18:45:54.588Z,41.57
2019-05-20T18:48:25.038Z,39.20
2019-05-20T18:50:55.601Z,39.20
2019-05-20T18:53:26.119Z,43.47
2019-05-20T18:55:56.582Z,43.93
2019-05-20T18:58:27.010Z,48.57
2019-05-20T19:00:57.454Z,51.40
2019-05-20T19:03:28.663Z,49.40
2019-05-20T19:05:59.644Z,58.40
2019-05-20T19:08:30.179Z,51.20
2019-05-20T19:11:00.656Z,56.33
2019-05-20T19:13:31.090Z,57.50
2019-05-20T19:16:01.681Z,59.67
2019-05-20T19:18:32.094Z,55.23
2019-05-20T19:21:02.558Z,61.27
2019-05-20T19:23:33.134Z,57.10
2019-05-20T19:26:03.643Z,56.70
2019-05-20T19:28:34.195Z,59.50
2019-05-20T19:31:07.835Z,65.50
2019-05-20T19:33:36.774Z,66.03
2019-05-20T19:36:07.353Z,63.73
2019-05-20T19:38:37.820Z,66.37
2019-05-20T19:41:08.362Z,54.80
2019-05-20T19:43:38.873Z,69.00
2019-05-20T19:46:09.339Z,65.37
2019-05-20T19:48:39.781Z,64.83
2019-05-20T19:51:10.363Z,66.17
2019-05-20T19:53:40.820Z,67.00
2019-05-20T19:56:11.319Z,67.37
2019-05-20T19:58:41.778Z,71.07
2019-05-20T20:01:12.495Z,69.20
2019-05-20T20:03:43.131Z,74.97
2019-05-20T20:06:13.722Z,72.27
2019-05-20T20:08:44.200Z,70.23
2019-05-20T20:11:14.675Z,73.17
2019-05-20T20:13:45.159Z,73.97
2019-05-20T20:16:18.068Z,77.53
2019-05-20T20:18:48.293Z,72.53
2019-05-20T20:21:19.079Z,71.10
2019-05-20T20:23:49.545Z,84.00
2019-05-20T20:26:19.982Z,76.77
2019-05-20T20:28:50.389Z,87.30
2019-05-20T20:31:20.815Z,71.80
2019-05-20T20:33:51.248Z,68.73
2019-05-20T20:36:21.805Z,64.90
2019-05-20T20:38:52.314Z,66.60
2019-05-20T20:41:22.787Z,64.57
2019-05-20T20:43:53.416Z,63.40
2019-05-20T20:46:23.890Z,59.27
2019-05-20T20:48:54.355Z,56.83
2019-05-20T20:51:24.867Z,64.97
2019-05-20T20:53:55.313Z,61.07
2019-05-20T20:56:25.749Z,68.60
2019-05-20T20:58:56.255Z,65.67
2019-05-20T21:01:26.670Z,73.00
2019-05-20T21:03:57.370Z,62.63
2019-05-20T21:06:27.729Z,63.37
2019-05-20T21:08:58.216Z,66.50
2019-05-20T21:11:28.698Z,58.73
2019-05-20T21:13:59.124Z,61.00
2019-05-20T21:16:29.618Z,57.27
2019-05-20T21:19:00.149Z,59.90
2019-05-20T21:21:30.533Z,50.17
2019-05-20T21:24:00.955Z,46.23
2019-05-20T21:26:31.353Z,47.93
2019-05-20T21:29:01.804Z,54.67
2019-05-20T21:31:32.185Z,54.77
2019-05-20T21:34:02.630Z,56.13
2019-05-20T21:36:46.523Z,53.40
2019-05-20T21:39:05.906Z,53.23
2019-05-20T21:41:36.312Z,51.10
2019-05-20T21:44:06.759Z,58.60
2019-05-20T21:47:10.349Z,48.93
2019-05-20T21:49:40.725Z,51.80
2019-05-20T21:52:11.125Z,49.73
2019-05-20T21:54:41.685Z,52.00
2019-05-20T21:57:12.262Z,49.13
2019-05-20T21:59:42.696Z,47.93
2019-05-20T22:02:13.137Z,49.47
2019-05-20T22:04:43.526Z,46.00
2019-05-20T22:07:14.034Z,44.47
2019-05-20T22:09:44.468Z,39.97
2019-05-20T22:12:14.902Z,39.00
2019-05-20T22:14:45.358Z,37.50
2019-05-20T22:17:15.737Z,33.10
2019-05-20T22:19:46.182Z,32.30
2019-05-20T22:22:36.447Z,35.23
2019-05-20T22:25:06.933Z,34.30
2019-05-20T22:27:37.310Z,33.53
2019-05-20T22:30:08.039Z,36.40
2019-05-20T22:32:38.470Z,31.53
2019-05-20T22:35:08.929Z,39.13
2019-05-20T22:37:39.390Z,31.83
2019-05-20T22:40:09.998Z,32.93
2019-05-20T22:42:40.389Z,29.47
2019-05-20T22:45:10.974Z,32.07
2019-05-20T22:47:41.416Z,31.00
2019-05-20T22:50:11.837Z,31.43
2019-05-20T22:52:42.264Z,34.20
2019-05-20T22:55:12.802Z,31.07
2019-05-20T22:57:43.267Z,29.43
2019-05-20T23:00:13.915Z,27.50
2019-05-20T23:02:44.319Z,29.20
2019-05-20T23:05:14.807Z,29.83
2019-05-20T23:07:45.179Z,30.37
2019-05-20T23:10:15.697Z,25.00
2019-05-20T23:12:46.185Z,21.57
2019-05-20T23:15:16.698Z,21.77
2019-05-20T23:17:47.076Z,22.37
2019-05-20T23:20:17.805Z,20.00
2019-05-20T23:22:48.186Z,17.90
2019-05-20T23:25:18.565Z,11.83
2019-05-20T23:27:48.929Z,11.47
2019-05-20T23:30:19.435Z,9.10
2019-05-20T23:32:49.881Z,8.27
2019-05-20T23:35:20.399Z,7.10
2019-05-20T23:37:50.778Z,7.33
2019-05-20T23:40:21.197Z,6.50
2019-05-20T23:42:51.635Z,5.57
2019-05-20T23:45:22.049Z,5.63
2019-05-20T23:47:52.410Z,5.10
2019-05-20T23:50:22.822Z,6.60
2019-05-20T23:52:53.221Z,6.60
2019-05-20T23:55:23.631Z,6.20
2019-05-20T23:57:54.032Z,7.50
